South Macon, Georgia
Current Conditions -  °F | °C
As of 3:53 PM on Saturday 25 Oct 2014 (Local Time) from KMCN Reporting Station
Clear Clear  
Wind Chill: 77°   Ceiling: Unl
Heat Index: 78°   Visibility: 10mi
Dew Point: 43°   Wind: 8mph
Humidity: 30%   Direction: 310°NW
Pressure: 30"   Gusts: NA
Location:  32.7882°N, 83.6652°W
Report Text: KMCN 251953Z 31007KT 10SM CLR 25/06 A3000 RMK AO2 SLP155 T02500061
Loading
Personal Weather Stations






























Interactive Weather Map
Tropical Storm Tracking
New forecast layout! Learn more

10-Day Weather Forecast

Advertisements
Track Severe Weather on mobile